Terminal Aerodrome Forecast
Issued by NWS Shreveport, LA

Home | Current Version | Previous Version | Text Only | Print | Product List | Glossary On
Versions: 1 2 3 4 5 6 7 8 9 10 11 12
457
FTUS44 KSHV 211744
TAFTXK
TAF
KTXK 211744Z 2118/2218 17005KT P6SM SCT020 SCT030 BKN250
      TEMPO 2119/2123 BKN020
     FM212300 VRB03KT P6SM SCT025 SCT035 BKN200
     FM220300 36006KT P6SM FEW035 SCT250
     FM220600 36006KT P6SM SKC
     FM221300 03009KT P6SM SKC=

USA.gov is the U.S. government's official web portal to all federal, state and local government web resources and services.